sensor_id;sensor_type;location;lat;lon;timestamp;temperature;humidity
26336;DHT22;14047;50.936;4.654;2022-09-21T00:01:06;9.80;99.90
26336;DHT22;14047;50.936;4.654;2022-09-21T00:03:32;9.80;99.90
26336;DHT22;14047;50.936;4.654;2022-09-21T00:06:06;9.70;99.90
26336;DHT22;14047;50.936;4.654;2022-09-21T00:08:32;9.70;99.90
26336;DHT22;14047;50.936;4.654;2022-09-21T00:10:58;9.70;99.90
26336;DHT22;14047;50.936;4.654;2022-09-21T00:13:25;9.70;99.90
26336;DHT22;14047;50.936;4.654;2022-09-21T00:15:53;9.70;99.90
26336;DHT22;14047;50.936;4.654;2022-09-21T00:18:19;9.70;99.90
26336;DHT22;14047;50.936;4.654;2022-09-21T00:20:45;9.60;99.90
26336;DHT22;14047;50.936;4.654;2022-09-21T00:23:11;9.60;99.90
26336;DHT22;14047;50.936;4.654;2022-09-21T00:25:37;9.60;99.90
26336;DHT22;14047;50.936;4.654;2022-09-21T00:28:03;9.50;99.90
26336;DHT22;14047;50.936;4.654;2022-09-21T00:30:29;9.50;99.90
26336;DHT22;14047;50.936;4.654;2022-09-21T00:32:54;9.50;99.90
26336;DHT22;14047;50.936;4.654;2022-09-21T00:35:20;9.50;99.90
26336;DHT22;14047;50.936;4.654;2022-09-21T00:37:46;9.40;99.90
26336;DHT22;14047;50.936;4.654;2022-09-21T00:40:12;9.40;99.90
26336;DHT22;14047;50.936;4.654;2022-09-21T00:42:37;9.50;99.90
26336;DHT22;14047;50.936;4.654;2022-09-21T00:45:04;9.50;99.90
26336;DHT22;14047;50.936;4.654;2022-09-21T00:47:34;9.40;99.90
26336;DHT22;14047;50.936;4.654;2022-09-21T00:50:05;9.40;99.90
26336;DHT22;14047;50.936;4.654;2022-09-21T00:52:34;9.30;99.90
26336;DHT22;14047;50.936;4.654;2022-09-21T00:55:14;9.30;99.90
26336;DHT22;14047;50.936;4.654;2022-09-21T00:57:42;9.40;99.90
26336;DHT22;14047;50.936;4.654;2022-09-21T01:00:09;9.40;99.90
26336;DHT22;14047;50.936;4.654;2022-09-21T01:02:36;9.40;99.90
26336;DHT22;14047;50.936;4.654;2022-09-21T01:05:04;9.40;99.90
26336;DHT22;14047;50.936;4.654;2022-09-21T01:07:34;9.40;99.90
26336;DHT22;14047;50.936;4.654;2022-09-21T01:10:09;9.40;99.90
26336;DHT22;14047;50.936;4.654;2022-09-21T01:15:18;9.40;99.90
26336;DHT22;14047;50.936;4.654;2022-09-21T01:18:07;9.30;99.90
26336;DHT22;14047;50.936;4.654;2022-09-21T01:32:13;9.20;99.90
26336;DHT22;14047;50.936;4.654;2022-09-21T01:34:58;9.10;99.90
26336;DHT22;14047;50.936;4.654;2022-09-21T01:37:47;9.10;99.90
26336;DHT22;14047;50.936;4.654;2022-09-21T01:40:21;9.00;99.90
26336;DHT22;14047;50.936;4.654;2022-09-21T01:42:50;9.10;99.90
26336;DHT22;14047;50.936;4.654;2022-09-21T01:45:40;9.10;99.90
26336;DHT22;14047;50.936;4.654;2022-09-21T01:48:07;9.00;99.90
26336;DHT22;14047;50.936;4.654;2022-09-21T01:50:40;9.00;99.90
26336;DHT22;14047;50.936;4.654;2022-09-21T01:55:52;9.00;99.90
26336;DHT22;14047;50.936;4.654;2022-09-21T02:00:54;8.80;99.90
26336;DHT22;14047;50.936;4.654;2022-09-21T02:03:36;8.70;99.90
26336;DHT22;14047;50.936;4.654;2022-09-21T02:06:04;8.60;99.90
26336;DHT22;14047;50.936;4.654;2022-09-21T02:08:31;8.60;99.90
26336;DHT22;14047;50.936;4.654;2022-09-21T02:11:01;8.60;99.90
26336;DHT22;14047;50.936;4.654;2022-09-21T02:13:33;8.50;99.90
26336;DHT22;14047;50.936;4.654;2022-09-21T02:19:08;8.60;99.90
26336;DHT22;14047;50.936;4.654;2022-09-21T02:21:55;8.50;99.90
26336;DHT22;14047;50.936;4.654;2022-09-21T02:27:03;8.50;99.90
26336;DHT22;14047;50.936;4.654;2022-09-21T02:29:56;8.40;99.90
26336;DHT22;14047;50.936;4.654;2022-09-21T02:32:30;8.40;99.90
26336;DHT22;14047;50.936;4.654;2022-09-21T02:35:12;8.40;99.90
26336;DHT22;14047;50.936;4.654;2022-09-21T02:37:47;8.40;99.90
26336;DHT22;14047;50.936;4.654;2022-09-21T02:43:00;8.40;99.90
26336;DHT22;14047;50.936;4.654;2022-09-21T02:45:32;8.50;99.90
26336;DHT22;14047;50.936;4.654;2022-09-21T02:48:20;8.50;99.90
26336;DHT22;14047;50.936;4.654;2022-09-21T02:50:54;8.40;99.90
26336;DHT22;14047;50.936;4.654;2022-09-21T02:53:27;8.40;99.90
26336;DHT22;14047;50.936;4.654;2022-09-21T02:55:56;8.40;99.90
26336;DHT22;14047;50.936;4.654;2022-09-21T02:58:25;8.30;99.90
26336;DHT22;14047;50.936;4.654;2022-09-21T03:00:51;8.40;99.90
26336;DHT22;14047;50.936;4.654;2022-09-21T03:03:21;8.30;99.90
26336;DHT22;14047;50.936;4.654;2022-09-21T03:05:50;8.30;99.90
26336;DHT22;14047;50.936;4.654;2022-09-21T03:08:17;8.20;99.90
26336;DHT22;14047;50.936;4.654;2022-09-21T03:10:43;8.10;99.90
26336;DHT22;14047;50.936;4.654;2022-09-21T03:13:09;8.20;99.90
26336;DHT22;14047;50.936;4.654;2022-09-21T03:15:39;8.20;99.90
26336;DHT22;14047;50.936;4.654;2022-09-21T03:18:07;8.20;99.90
26336;DHT22;14047;50.936;4.654;2022-09-21T03:20:36;8.20;99.90
26336;DHT22;14047;50.936;4.654;2022-09-21T03:23:02;8.20;99.90
26336;DHT22;14047;50.936;4.654;2022-09-21T03:25:29;8.10;99.90
26336;DHT22;14047;50.936;4.654;2022-09-21T03:27:56;8.20;99.90
26336;DHT22;14047;50.936;4.654;2022-09-21T03:30:23;8.20;99.90
26336;DHT22;14047;50.936;4.654;2022-09-21T03:32:52;8.20;99.90
26336;DHT22;14047;50.936;4.654;2022-09-21T03:35:22;8.20;99.90
26336;DHT22;14047;50.936;4.654;2022-09-21T03:37:48;8.20;99.90
26336;DHT22;14047;50.936;4.654;2022-09-21T03:40:15;8.20;99.90
26336;DHT22;14047;50.936;4.654;2022-09-21T03:42:42;8.10;99.90
26336;DHT22;14047;50.936;4.654;2022-09-21T03:45:10;8.10;99.90
26336;DHT22;14047;50.936;4.654;2022-09-21T03:47:36;8.00;99.90
26336;DHT22;14047;50.936;4.654;2022-09-21T03:50:03;8.00;99.90
26336;DHT22;14047;50.936;4.654;2022-09-21T03:52:29;8.00;99.90
26336;DHT22;14047;50.936;4.654;2022-09-21T03:54:55;8.00;99.90
26336;DHT22;14047;50.936;4.654;2022-09-21T03:57:21;8.00;99.90
26336;DHT22;14047;50.936;4.654;2022-09-21T03:59:47;8.00;99.90
26336;DHT22;14047;50.936;4.654;2022-09-21T04:02:14;8.00;99.90
26336;DHT22;14047;50.936;4.654;2022-09-21T04:04:40;8.00;99.90
26336;DHT22;14047;50.936;4.654;2022-09-21T04:07:06;7.90;99.90
26336;DHT22;14047;50.936;4.654;2022-09-21T04:09:31;8.00;99.90
26336;DHT22;14047;50.936;4.654;2022-09-21T04:11:57;7.90;99.90
26336;DHT22;14047;50.936;4.654;2022-09-21T04:14:22;7.90;99.90
26336;DHT22;14047;50.936;4.654;2022-09-21T04:16:48;7.90;99.90
26336;DHT22;14047;50.936;4.654;2022-09-21T04:19:16;7.90;99.90
26336;DHT22;14047;50.936;4.654;2022-09-21T04:21:42;7.90;99.90
26336;DHT22;14047;50.936;4.654;2022-09-21T04:24:08;7.90;99.90
26336;DHT22;14047;50.936;4.654;2022-09-21T04:26:34;7.90;99.90
26336;DHT22;14047;50.936;4.654;2022-09-21T04:29:01;7.90;99.90
26336;DHT22;14047;50.936;4.654;2022-09-21T04:31:28;8.00;99.90
26336;DHT22;14047;50.936;4.654;2022-09-21T04:33:56;7.90;99.90
26336;DHT22;14047;50.936;4.654;2022-09-21T04:36:23;8.00;99.90
26336;DHT22;14047;50.936;4.654;2022-09-21T04:38:49;8.00;99.90
26336;DHT22;14047;50.936;4.654;2022-09-21T04:41:15;7.90;99.90
26336;DHT22;14047;50.936;4.654;2022-09-21T04:43:42;7.90;99.90
26336;DHT22;14047;50.936;4.654;2022-09-21T04:46:13;7.90;99.90
26336;DHT22;14047;50.936;4.654;2022-09-21T04:48:40;7.90;99.90
26336;DHT22;14047;50.936;4.654;2022-09-21T04:51:06;7.90;99.90
26336;DHT22;14047;50.936;4.654;2022-09-21T04:53:33;7.90;99.90
26336;DHT22;14047;50.936;4.654;2022-09-21T04:55:59;7.90;99.90
26336;DHT22;14047;50.936;4.654;2022-09-21T04:58:25;7.90;99.90
26336;DHT22;14047;50.936;4.654;2022-09-21T05:00:51;7.90;99.90
26336;DHT22;14047;50.936;4.654;2022-09-21T05:03:18;7.90;99.90
26336;DHT22;14047;50.936;4.654;2022-09-21T05:05:55;7.90;99.90
26336;DHT22;14047;50.936;4.654;2022-09-21T05:08:22;7.90;99.90
26336;DHT22;14047;50.936;4.654;2022-09-21T05:11:10;7.80;99.90
26336;DHT22;14047;50.936;4.654;2022-09-21T05:13:38;7.80;99.90
26336;DHT22;14047;50.936;4.654;2022-09-21T05:16:04;7.80;99.90
26336;DHT22;14047;50.936;4.654;2022-09-21T05:18:29;7.80;99.90
26336;DHT22;14047;50.936;4.654;2022-09-21T05:20:56;7.80;99.90
26336;DHT22;14047;50.936;4.654;2022-09-21T05:23:23;7.80;99.90
26336;DHT22;14047;50.936;4.654;2022-09-21T05:25:49;7.60;99.90
26336;DHT22;14047;50.936;4.654;2022-09-21T05:28:16;7.40;99.90
26336;DHT22;14047;50.936;4.654;2022-09-21T05:30:51;7.40;99.90
26336;DHT22;14047;50.936;4.654;2022-09-21T05:33:21;7.40;99.90
26336;DHT22;14047;50.936;4.654;2022-09-21T05:38:31;7.50;99.90
26336;DHT22;14047;50.936;4.654;2022-09-21T05:40:57;7.60;99.90
26336;DHT22;14047;50.936;4.654;2022-09-21T05:43:23;7.70;99.90
26336;DHT22;14047;50.936;4.654;2022-09-21T05:46:01;7.80;99.90
26336;DHT22;14047;50.936;4.654;2022-09-21T05:48:40;7.90;99.90
26336;DHT22;14047;50.936;4.654;2022-09-21T05:51:33;8.00;99.90
26336;DHT22;14047;50.936;4.654;2022-09-21T05:57:03;8.00;99.90
26336;DHT22;14047;50.936;4.654;2022-09-21T05:59:42;8.00;99.90
26336;DHT22;14047;50.936;4.654;2022-09-21T06:04:43;8.10;99.90
26336;DHT22;14047;50.936;4.654;2022-09-21T06:07:09;8.10;99.90
26336;DHT22;14047;50.936;4.654;2022-09-21T06:09:34;8.10;99.90
26336;DHT22;14047;50.936;4.654;2022-09-21T06:12:00;8.30;99.90
26336;DHT22;14047;50.936;4.654;2022-09-21T06:14:26;8.30;99.90
26336;DHT22;14047;50.936;4.654;2022-09-21T06:16:52;8.30;99.90
26336;DHT22;14047;50.936;4.654;2022-09-21T06:19:18;8.00;99.90
26336;DHT22;14047;50.936;4.654;2022-09-21T06:21:43;8.00;99.90
26336;DHT22;14047;50.936;4.654;2022-09-21T06:24:09;8.10;99.90
26336;DHT22;14047;50.936;4.654;2022-09-21T06:26:36;8.30;99.90
26336;DHT22;14047;50.936;4.654;2022-09-21T06:29:02;8.40;99.90
26336;DHT22;14047;50.936;4.654;2022-09-21T06:31:28;8.60;99.90
26336;DHT22;14047;50.936;4.654;2022-09-21T06:33:54;8.60;99.90
26336;DHT22;14047;50.936;4.654;2022-09-21T06:36:19;8.80;99.90
26336;DHT22;14047;50.936;4.654;2022-09-21T06:38:45;8.70;99.90
26336;DHT22;14047;50.936;4.654;2022-09-21T06:41:11;8.80;99.90
26336;DHT22;14047;50.936;4.654;2022-09-21T06:43:36;8.90;99.90
26336;DHT22;14047;50.936;4.654;2022-09-21T06:46:02;9.00;99.90
26336;DHT22;14047;50.936;4.654;2022-09-21T06:48:29;9.10;99.90
26336;DHT22;14047;50.936;4.654;2022-09-21T06:51:00;9.20;99.90
26336;DHT22;14047;50.936;4.654;2022-09-21T06:53:27;9.20;99.90
26336;DHT22;14047;50.936;4.654;2022-09-21T06:55:59;9.20;99.90
26336;DHT22;14047;50.936;4.654;2022-09-21T06:58:25;9.30;99.90
26336;DHT22;14047;50.936;4.654;2022-09-21T07:00:50;9.10;99.90
26336;DHT22;14047;50.936;4.654;2022-09-21T07:03:16;8.70;99.90
26336;DHT22;14047;50.936;4.654;2022-09-21T07:05:44;8.80;99.90
26336;DHT22;14047;50.936;4.654;2022-09-21T07:08:10;9.00;99.90
26336;DHT22;14047;50.936;4.654;2022-09-21T07:10:36;9.20;99.90
26336;DHT22;14047;50.936;4.654;2022-09-21T07:13:04;9.40;99.90
26336;DHT22;14047;50.936;4.654;2022-09-21T07:15:31;9.60;99.90
26336;DHT22;14047;50.936;4.654;2022-09-21T07:17:57;9.80;99.90
26336;DHT22;14047;50.936;4.654;2022-09-21T07:20:23;9.90;99.90
26336;DHT22;14047;50.936;4.654;2022-09-21T07:22:49;10.20;99.90
26336;DHT22;14047;50.936;4.654;2022-09-21T07:25:14;10.20;99.90
26336;DHT22;14047;50.936;4.654;2022-09-21T07:27:40;10.30;99.90
26336;DHT22;14047;50.936;4.654;2022-09-21T07:30:07;10.40;99.90
26336;DHT22;14047;50.936;4.654;2022-09-21T07:32:32;10.30;99.90
26336;DHT22;14047;50.936;4.654;2022-09-21T07:34:58;10.30;99.90
26336;DHT22;14047;50.936;4.654;2022-09-21T07:37:24;10.30;99.90
26336;DHT22;14047;50.936;4.654;2022-09-21T07:39:51;10.40;99.90
26336;DHT22;14047;50.936;4.654;2022-09-21T07:42:18;10.60;99.90
26336;DHT22;14047;50.936;4.654;2022-09-21T07:44:47;10.80;99.90
26336;DHT22;14047;50.936;4.654;2022-09-21T07:47:14;10.70;99.90
26336;DHT22;14047;50.936;4.654;2022-09-21T07:49:40;10.60;99.90
26336;DHT22;14047;50.936;4.654;2022-09-21T07:52:07;10.60;99.90
26336;DHT22;14047;50.936;4.654;2022-09-21T07:54:33;10.40;99.90
26336;DHT22;14047;50.936;4.654;2022-09-21T07:56:59;10.30;99.90
26336;DHT22;14047;50.936;4.654;2022-09-21T07:59:44;10.20;99.90
26336;DHT22;14047;50.936;4.654;2022-09-21T08:02:10;10.40;99.90
26336;DHT22;14047;50.936;4.654;2022-09-21T08:04:36;10.70;99.90
26336;DHT22;14047;50.936;4.654;2022-09-21T08:07:02;10.90;99.90
26336;DHT22;14047;50.936;4.654;2022-09-21T08:09:28;11.10;99.90
26336;DHT22;14047;50.936;4.654;2022-09-21T08:11:53;11.20;99.90
26336;DHT22;14047;50.936;4.654;2022-09-21T08:14:20;11.40;99.90
26336;DHT22;14047;50.936;4.654;2022-09-21T08:16:46;11.70;99.90
26336;DHT22;14047;50.936;4.654;2022-09-21T08:19:15;11.90;99.90
26336;DHT22;14047;50.936;4.654;2022-09-21T08:21:47;12.10;99.90
26336;DHT22;14047;50.936;4.654;2022-09-21T08:24:13;12.20;99.90
26336;DHT22;14047;50.936;4.654;2022-09-21T08:26:39;12.40;99.90
26336;DHT22;14047;50.936;4.654;2022-09-21T08:29:05;12.50;99.90
26336;DHT22;14047;50.936;4.654;2022-09-21T08:31:30;12.70;99.90
26336;DHT22;14047;50.936;4.654;2022-09-21T08:33:56;12.80;99.90
26336;DHT22;14047;50.936;4.654;2022-09-21T08:36:22;12.90;99.90
26336;DHT22;14047;50.936;4.654;2022-09-21T08:38:48;13.00;99.90
26336;DHT22;14047;50.936;4.654;2022-09-21T08:44:10;13.30;99.90
26336;DHT22;14047;50.936;4.654;2022-09-21T08:46:37;13.40;99.90
26336;DHT22;14047;50.936;4.654;2022-09-21T08:49:18;13.60;99.90
26336;DHT22;14047;50.936;4.654;2022-09-21T08:52:04;13.60;99.90
26336;DHT22;14047;50.936;4.654;2022-09-21T08:54:48;13.60;99.90
26336;DHT22;14047;50.936;4.654;2022-09-21T08:57:17;13.70;99.90
26336;DHT22;14047;50.936;4.654;2022-09-21T08:59:45;13.80;99.90
26336;DHT22;14047;50.936;4.654;2022-09-21T09:07:50;14.20;99.90
26336;DHT22;14047;50.936;4.654;2022-09-21T09:18:53;14.60;99.90
26336;DHT22;14047;50.936;4.654;2022-09-21T09:21:26;14.70;99.90
26336;DHT22;14047;50.936;4.654;2022-09-21T09:24:02;14.90;99.90
26336;DHT22;14047;50.936;4.654;2022-09-21T09:26:42;15.00;99.90
26336;DHT22;14047;50.936;4.654;2022-09-21T09:29:27;14.60;99.90
26336;DHT22;14047;50.936;4.654;2022-09-21T09:31:54;14.70;99.90
26336;DHT22;14047;50.936;4.654;2022-09-21T09:34:31;14.70;99.90
26336;DHT22;14047;50.936;4.654;2022-09-21T09:37:09;14.70;99.90
26336;DHT22;14047;50.936;4.654;2022-09-21T09:39:35;14.80;99.90
26336;DHT22;14047;50.936;4.654;2022-09-21T09:50:03;15.60;99.90
26336;DHT22;14047;50.936;4.654;2022-09-21T09:52:30;15.50;99.90
26336;DHT22;14047;50.936;4.654;2022-09-21T09:55:01;15.60;99.90
26336;DHT22;14047;50.936;4.654;2022-09-21T09:57:35;15.50;99.90
26336;DHT22;14047;50.936;4.654;2022-09-21T10:00:06;15.40;99.90
26336;DHT22;14047;50.936;4.654;2022-09-21T10:02:56;15.60;99.90
26336;DHT22;14047;50.936;4.654;2022-09-21T10:05:33;15.70;99.90
26336;DHT22;14047;50.936;4.654;2022-09-21T10:07:59;15.80;99.90
26336;DHT22;14047;50.936;4.654;2022-09-21T10:10:33;15.80;99.90
26336;DHT22;14047;50.936;4.654;2022-09-21T10:13:04;15.50;99.90
26336;DHT22;14047;50.936;4.654;2022-09-21T10:15:31;15.50;99.90
26336;DHT22;14047;50.936;4.654;2022-09-21T10:18:14;15.30;99.90
26336;DHT22;14047;50.936;4.654;2022-09-21T10:20:54;15.10;99.90
26336;DHT22;14047;50.936;4.654;2022-09-21T10:23:21;15.20;99.90
26336;DHT22;14047;50.936;4.654;2022-09-21T10:25:59;15.30;99.90
26336;DHT22;14047;50.936;4.654;2022-09-21T10:28:26;15.60;99.90
26336;DHT22;14047;50.936;4.654;2022-09-21T10:31:16;15.90;99.90
26336;DHT22;14047;50.936;4.654;2022-09-21T10:33:48;16.30;99.90
26336;DHT22;14047;50.936;4.654;2022-09-21T10:36:30;16.60;99.90
26336;DHT22;14047;50.936;4.654;2022-09-21T10:39:08;16.90;99.90
26336;DHT22;14047;50.936;4.654;2022-09-21T10:41:36;17.20;99.90
26336;DHT22;14047;50.936;4.654;2022-09-21T10:44:02;17.30;99.90
26336;DHT22;14047;50.936;4.654;2022-09-21T10:46:32;17.60;99.90
26336;DHT22;14047;50.936;4.654;2022-09-21T10:48:59;17.40;99.90
26336;DHT22;14047;50.936;4.654;2022-09-21T10:51:28;17.50;99.90
26336;DHT22;14047;50.936;4.654;2022-09-21T10:53:54;17.70;99.90
26336;DHT22;14047;50.936;4.654;2022-09-21T10:56:19;17.80;99.90
26336;DHT22;14047;50.936;4.654;2022-09-21T11:01:51;18.20;99.90
26336;DHT22;14047;50.936;4.654;2022-09-21T11:06:54;18.70;99.90
26336;DHT22;14047;50.936;4.654;2022-09-21T11:09:28;18.90;99.90
26336;DHT22;14047;50.936;4.654;2022-09-21T11:12:07;19.20;99.90
26336;DHT22;14047;50.936;4.654;2022-09-21T11:17:38;19.50;99.90
26336;DHT22;14047;50.936;4.654;2022-09-21T11:28:38;20.10;99.90
26336;DHT22;14047;50.936;4.654;2022-09-21T11:33:54;20.00;99.90
26336;DHT22;14047;50.936;4.654;2022-09-21T11:37:06;20.10;99.90
26336;DHT22;14047;50.936;4.654;2022-09-21T11:42:33;20.30;99.90
26336;DHT22;14047;50.936;4.654;2022-09-21T11:45:10;20.20;99.90
26336;DHT22;14047;50.936;4.654;2022-09-21T11:47:45;20.00;99.90
26336;DHT22;14047;50.936;4.654;2022-09-21T11:58:23;19.60;99.90
26336;DHT22;14047;50.936;4.654;2022-09-21T12:00:57;19.80;99.90
26336;DHT22;14047;50.936;4.654;2022-09-21T12:03:37;19.70;99.90
26336;DHT22;14047;50.936;4.654;2022-09-21T12:06:27;19.80;99.90
26336;DHT22;14047;50.936;4.654;2022-09-21T12:11:36;20.00;99.90
26336;DHT22;14047;50.936;4.654;2022-09-21T12:14:43;20.10;99.90
26336;DHT22;14047;50.936;4.654;2022-09-21T12:20:11;20.70;99.90
26336;DHT22;14047;50.936;4.654;2022-09-21T12:22:44;21.00;99.90
26336;DHT22;14047;50.936;4.654;2022-09-21T12:25:20;21.10;99.90
26336;DHT22;14047;50.936;4.654;2022-09-21T12:27:50;21.30;99.90
26336;DHT22;14047;50.936;4.654;2022-09-21T12:30:19;21.60;99.90
26336;DHT22;14047;50.936;4.654;2022-09-21T12:33:08;22.00;99.90
26336;DHT22;14047;50.936;4.654;2022-09-21T12:35:56;22.20;99.90
26336;DHT22;14047;50.936;4.654;2022-09-21T12:38:33;22.40;99.90
26336;DHT22;14047;50.936;4.654;2022-09-21T12:41:19;22.40;99.90
26336;DHT22;14047;50.936;4.654;2022-09-21T12:47:04;22.40;99.90
26336;DHT22;14047;50.936;4.654;2022-09-21T12:49:46;21.80;99.90
26336;DHT22;14047;50.936;4.654;2022-09-21T12:52:21;21.60;99.90
26336;DHT22;14047;50.936;4.654;2022-09-21T12:57:55;21.30;99.90
26336;DHT22;14047;50.936;4.654;2022-09-21T13:00:30;21.10;99.90
26336;DHT22;14047;50.936;4.654;2022-09-21T13:03:12;20.40;99.90
26336;DHT22;14047;50.936;4.654;2022-09-21T13:06:13;19.40;99.90
26336;DHT22;14047;50.936;4.654;2022-09-21T13:08:45;19.00;99.90
26336;DHT22;14047;50.936;4.654;2022-09-21T13:11:12;18.80;99.90
26336;DHT22;14047;50.936;4.654;2022-09-21T13:13:48;18.60;99.90
26336;DHT22;14047;50.936;4.654;2022-09-21T13:19:02;19.00;99.90
26336;DHT22;14047;50.936;4.654;2022-09-21T13:21:30;19.50;99.90
26336;DHT22;14047;50.936;4.654;2022-09-21T13:24:01;19.90;99.90
26336;DHT22;14047;50.936;4.654;2022-09-21T13:26:39;20.20;99.90
26336;DHT22;14047;50.936;4.654;2022-09-21T13:29:26;20.40;99.90
26336;DHT22;14047;50.936;4.654;2022-09-21T13:45:01;21.50;99.90
26336;DHT22;14047;50.936;4.654;2022-09-21T13:47:32;21.40;99.90
26336;DHT22;14047;50.936;4.654;2022-09-21T13:53:05;21.40;99.90
26336;DHT22;14047;50.936;4.654;2022-09-21T13:55:40;21.60;99.90
26336;DHT22;14047;50.936;4.654;2022-09-21T13:58:24;21.70;99.90
26336;DHT22;14047;50.936;4.654;2022-09-21T14:01:13;21.70;99.90
26336;DHT22;14047;50.936;4.654;2022-09-21T14:03:46;21.90;99.90
26336;DHT22;14047;50.936;4.654;2022-09-21T14:06:29;22.10;99.90
26336;DHT22;14047;50.936;4.654;2022-09-21T14:09:00;22.20;99.90
26336;DHT22;14047;50.936;4.654;2022-09-21T14:11:30;22.40;99.90
26336;DHT22;14047;50.936;4.654;2022-09-21T14:25:14;23.90;99.90
26336;DHT22;14047;50.936;4.654;2022-09-21T14:27:41;23.60;99.90
26336;DHT22;14047;50.936;4.654;2022-09-21T14:30:22;23.30;99.90
26336;DHT22;14047;50.936;4.654;2022-09-21T14:35:26;23.30;99.90
26336;DHT22;14047;50.936;4.654;2022-09-21T14:37:57;22.40;99.90
26336;DHT22;14047;50.936;4.654;2022-09-21T14:40:28;21.00;99.90
26336;DHT22;14047;50.936;4.654;2022-09-21T14:42:57;19.90;99.90
26336;DHT22;14047;50.936;4.654;2022-09-21T15:00:19;18.10;99.90
26336;DHT22;14047;50.936;4.654;2022-09-21T15:02:59;17.90;99.90
26336;DHT22;14047;50.936;4.654;2022-09-21T15:05:36;17.80;99.90
26336;DHT22;14047;50.936;4.654;2022-09-21T15:11:30;17.90;99.90
26336;DHT22;14047;50.936;4.654;2022-09-21T15:14:33;18.00;99.90
26336;DHT22;14047;50.936;4.654;2022-09-21T15:17:21;18.10;99.90
26336;DHT22;14047;50.936;4.654;2022-09-21T15:19:48;18.20;99.90
26336;DHT22;14047;50.936;4.654;2022-09-21T15:22:17;18.00;99.90
26336;DHT22;14047;50.936;4.654;2022-09-21T15:24:55;18.00;99.90
26336;DHT22;14047;50.936;4.654;2022-09-21T15:27:23;18.90;99.90
26336;DHT22;14047;50.936;4.654;2022-09-21T15:29:53;19.80;99.90
26336;DHT22;14047;50.936;4.654;2022-09-21T15:35:00;21.80;99.90
26336;DHT22;14047;50.936;4.654;2022-09-21T15:37:27;23.00;99.90
26336;DHT22;14047;50.936;4.654;2022-09-21T15:40:00;24.00;99.90
26336;DHT22;14047;50.936;4.654;2022-09-21T15:42:26;24.60;99.90
26336;DHT22;14047;50.936;4.654;2022-09-21T15:45:16;25.60;99.90
26336;DHT22;14047;50.936;4.654;2022-09-21T15:47:42;26.30;98.80
26336;DHT22;14047;50.936;4.654;2022-09-21T15:50:16;26.70;97.90
26336;DHT22;14047;50.936;4.654;2022-09-21T15:53:04;27.60;96.30
26336;DHT22;14047;50.936;4.654;2022-09-21T15:55:33;28.40;92.80
26336;DHT22;14047;50.936;4.654;2022-09-21T15:57:59;28.70;90.30
26336;DHT22;14047;50.936;4.654;2022-09-21T16:00:31;28.50;88.20
26336;DHT22;14047;50.936;4.654;2022-09-21T16:05:52;28.70;87.30
26336;DHT22;14047;50.936;4.654;2022-09-21T16:08:32;29.50;87.30
26336;DHT22;14047;50.936;4.654;2022-09-21T16:11:19;29.60;81.60
26336;DHT22;14047;50.936;4.654;2022-09-21T16:13:50;29.00;83.40
26336;DHT22;14047;50.936;4.654;2022-09-21T16:19:44;25.30;89.50
26336;DHT22;14047;50.936;4.654;2022-09-21T16:27:56;27.20;88.10
26336;DHT22;14047;50.936;4.654;2022-09-21T16:30:55;27.40;90.40
26336;DHT22;14047;50.936;4.654;2022-09-21T16:33:43;27.50;91.20
26336;DHT22;14047;50.936;4.654;2022-09-21T16:38:53;26.80;90.90
26336;DHT22;14047;50.936;4.654;2022-09-21T16:41:20;26.00;92.50
26336;DHT22;14047;50.936;4.654;2022-09-21T16:43:46;23.60;96.60
26336;DHT22;14047;50.936;4.654;2022-09-21T16:46:16;22.10;99.90
26336;DHT22;14047;50.936;4.654;2022-09-21T16:48:42;21.90;99.90
26336;DHT22;14047;50.936;4.654;2022-09-21T16:51:14;21.70;99.90
26336;DHT22;14047;50.936;4.654;2022-09-21T16:53:40;21.30;99.90
26336;DHT22;14047;50.936;4.654;2022-09-21T16:56:11;21.10;99.90
26336;DHT22;14047;50.936;4.654;2022-09-21T16:58:38;20.60;99.90
26336;DHT22;14047;50.936;4.654;2022-09-21T17:01:07;20.00;99.90
26336;DHT22;14047;50.936;4.654;2022-09-21T17:03:34;19.80;99.90
26336;DHT22;14047;50.936;4.654;2022-09-21T17:05:59;19.20;99.90
26336;DHT22;14047;50.936;4.654;2022-09-21T17:08:25;18.40;99.90
26336;DHT22;14047;50.936;4.654;2022-09-21T17:10:52;17.90;99.90
26336;DHT22;14047;50.936;4.654;2022-09-21T17:13:19;17.90;99.90
26336;DHT22;14047;50.936;4.654;2022-09-21T17:15:46;17.90;99.90
26336;DHT22;14047;50.936;4.654;2022-09-21T17:18:12;17.60;99.90
26336;DHT22;14047;50.936;4.654;2022-09-21T17:20:41;17.50;99.90
26336;DHT22;14047;50.936;4.654;2022-09-21T17:23:07;17.40;99.90
26336;DHT22;14047;50.936;4.654;2022-09-21T17:25:34;17.30;99.90
26336;DHT22;14047;50.936;4.654;2022-09-21T17:28:01;17.30;99.90
26336;DHT22;14047;50.936;4.654;2022-09-21T17:30:28;17.40;99.90
26336;DHT22;14047;50.936;4.654;2022-09-21T17:32:54;17.30;99.90
26336;DHT22;14047;50.936;4.654;2022-09-21T17:35:38;17.30;99.90
26336;DHT22;14047;50.936;4.654;2022-09-21T17:38:05;17.20;99.90
26336;DHT22;14047;50.936;4.654;2022-09-21T17:40:33;16.90;99.90
26336;DHT22;14047;50.936;4.654;2022-09-21T17:43:30;16.70;99.90
26336;DHT22;14047;50.936;4.654;2022-09-21T17:46:21;16.60;99.90
26336;DHT22;14047;50.936;4.654;2022-09-21T17:48:47;16.30;99.90
26336;DHT22;14047;50.936;4.654;2022-09-21T17:51:13;16.10;99.90
26336;DHT22;14047;50.936;4.654;2022-09-21T17:53:59;16.00;99.90
26336;DHT22;14047;50.936;4.654;2022-09-21T17:56:36;16.10;99.90
26336;DHT22;14047;50.936;4.654;2022-09-21T17:59:09;16.00;99.90
26336;DHT22;14047;50.936;4.654;2022-09-21T18:01:41;15.80;99.90
26336;DHT22;14047;50.936;4.654;2022-09-21T18:04:09;15.70;99.90
26336;DHT22;14047;50.936;4.654;2022-09-21T18:06:40;15.70;99.90
26336;DHT22;14047;50.936;4.654;2022-09-21T18:09:06;15.60;99.90
26336;DHT22;14047;50.936;4.654;2022-09-21T18:11:45;15.40;99.90
26336;DHT22;14047;50.936;4.654;2022-09-21T18:25:32;15.00;99.90
26336;DHT22;14047;50.936;4.654;2022-09-21T18:28:02;15.00;99.90
26336;DHT22;14047;50.936;4.654;2022-09-21T18:30:33;14.90;99.90
26336;DHT22;14047;50.936;4.654;2022-09-21T18:33:23;14.80;99.90
26336;DHT22;14047;50.936;4.654;2022-09-21T18:36:39;14.70;99.90
26336;DHT22;14047;50.936;4.654;2022-09-21T18:41:43;14.40;99.90
26336;DHT22;14047;50.936;4.654;2022-09-21T18:54:55;14.00;99.90
26336;DHT22;14047;50.936;4.654;2022-09-21T18:57:21;13.90;99.90
26336;DHT22;14047;50.936;4.654;2022-09-21T18:59:48;13.80;99.90
26336;DHT22;14047;50.936;4.654;2022-09-21T19:02:16;13.80;99.90
26336;DHT22;14047;50.936;4.654;2022-09-21T19:04:43;13.70;99.90
26336;DHT22;14047;50.936;4.654;2022-09-21T19:08:20;13.70;99.90
26336;DHT22;14047;50.936;4.654;2022-09-21T19:10:37;13.60;99.90
26336;DHT22;14047;50.936;4.654;2022-09-21T19:13:15;13.50;99.90
26336;DHT22;14047;50.936;4.654;2022-09-21T19:18:36;13.30;99.90
26336;DHT22;14047;50.936;4.654;2022-09-21T19:21:35;13.40;99.90
26336;DHT22;14047;50.936;4.654;2022-09-21T19:24:25;13.40;99.90